createdAt,value
2018-09-22T00:00:18.033Z,68.10
2018-09-22T00:02:45.860Z,67.20
2018-09-22T00:05:13.425Z,67.00
2018-09-22T00:07:41.028Z,67.00
2018-09-22T00:10:08.640Z,66.70
2018-09-22T00:12:36.501Z,66.60
2018-09-22T00:15:04.744Z,66.50
2018-09-22T00:17:32.279Z,66.30
2018-09-22T00:20:00.097Z,66.10
2018-09-22T00:22:27.656Z,66.00
2018-09-22T00:24:55.181Z,65.90
2018-09-22T00:27:22.981Z,65.70
2018-09-22T00:29:50.579Z,65.50
2018-09-22T00:32:18.194Z,65.20
2018-09-22T00:34:45.953Z,65.00
2018-09-22T00:37:13.593Z,64.90
2018-09-22T00:39:41.241Z,64.70
2018-09-22T00:42:08.836Z,64.60
2018-09-22T00:44:36.415Z,64.60
2018-09-22T00:47:04.707Z,64.30
2018-09-22T00:49:32.275Z,64.20
2018-09-22T00:52:00.413Z,64.10
2018-09-22T00:54:28.080Z,64.10
2018-09-22T00:56:55.699Z,63.80
2018-09-22T00:59:23.979Z,63.70
2018-09-22T01:01:51.715Z,63.50
2018-09-22T01:04:19.303Z,63.30
2018-09-22T01:06:47.090Z,63.30
2018-09-22T01:09:14.880Z,63.20
2018-09-22T01:11:42.444Z,63.10
2018-09-22T01:14:10.002Z,62.90
2018-09-22T01:16:37.976Z,62.70
2018-09-22T01:19:05.515Z,62.50
2018-09-22T01:21:33.427Z,62.40
2018-09-22T01:24:01.059Z,62.30
2018-09-22T01:26:28.604Z,62.30
2018-09-22T01:28:56.814Z,62.10
2018-09-22T01:31:24.431Z,62.00
2018-09-22T01:33:52.014Z,61.90
2018-09-22T01:36:20.069Z,61.80
2018-09-22T01:38:47.615Z,61.60
2018-09-22T01:41:15.266Z,62.30
2018-09-22T01:43:43.056Z,61.50
2018-09-22T01:46:11.116Z,61.40
2018-09-22T01:48:38.684Z,61.30
2018-09-22T01:51:06.959Z,61.10
2018-09-22T01:53:34.552Z,61.10
2018-09-22T01:56:02.500Z,61.10
2018-09-22T01:58:30.460Z,60.90
2018-09-22T02:00:58.046Z,60.90
2018-09-22T02:03:25.682Z,60.80
2018-09-22T02:05:53.248Z,60.80
2018-09-22T02:08:21.060Z,60.70
2018-09-22T02:10:48.613Z,60.60
2018-09-22T02:13:16.497Z,60.50
2018-09-22T02:15:44.092Z,60.40
2018-09-22T02:18:11.654Z,60.40
2018-09-22T02:20:39.408Z,60.30
2018-09-22T02:23:07.333Z,60.90
2018-09-22T02:25:35.201Z,60.10
2018-09-22T02:28:03.004Z,60.20
2018-09-22T02:30:30.579Z,60.10
2018-09-22T02:32:58.422Z,60.10
2018-09-22T02:35:25.988Z,59.90
2018-09-22T02:37:53.975Z,59.90
2018-09-22T02:40:21.740Z,59.90
2018-09-22T02:42:49.304Z,59.80
2018-09-22T02:45:16.851Z,59.70
2018-09-22T02:47:44.864Z,59.70
2018-09-22T02:50:12.441Z,59.70
2018-09-22T02:52:40.019Z,59.60
2018-09-22T02:55:08.033Z,59.60
2018-09-22T02:57:35.595Z,59.60
2018-09-22T03:00:03.517Z,59.50
2018-09-22T03:02:31.645Z,59.50
2018-09-22T03:04:59.242Z,59.50
2018-09-22T03:07:27.217Z,59.50
2018-09-22T03:09:55.000Z,59.50
2018-09-22T03:12:22.585Z,59.30
2018-09-22T03:14:50.171Z,59.30
2018-09-22T03:17:17.987Z,59.80
2018-09-22T03:19:45.490Z,59.30
2018-09-22T03:22:13.132Z,59.30
2018-09-22T03:24:41.464Z,59.30
2018-09-22T03:27:09.124Z,59.30
2018-09-22T03:29:36.684Z,59.30
2018-09-22T03:32:04.599Z,59.30
2018-09-22T03:34:32.268Z,59.30
2018-09-22T03:36:59.838Z,59.10
2018-09-22T03:39:27.460Z,59.20
2018-09-22T03:41:55.023Z,59.20
2018-09-22T03:44:22.604Z,59.10
2018-09-22T03:46:50.494Z,59.20
2018-09-22T03:49:18.050Z,59.10
2018-09-22T03:51:45.596Z,59.10
2018-09-22T03:54:13.544Z,59.10
2018-09-22T03:56:41.096Z,59.10
2018-09-22T03:59:08.826Z,59.10
2018-09-22T04:01:36.828Z,59.10
2018-09-22T04:04:05.148Z,59.10
2018-09-22T04:06:32.747Z,59.10
2018-09-22T04:09:00.624Z,59.00
2018-09-22T04:11:28.240Z,59.00
2018-09-22T04:13:56.088Z,59.00
2018-09-22T04:16:24.548Z,59.00
2018-09-22T04:18:52.089Z,59.00
2018-09-22T04:21:19.729Z,59.00
2018-09-22T04:23:47.287Z,59.00
2018-09-22T04:26:14.856Z,59.60
2018-09-22T04:28:42.369Z,59.50
2018-09-22T04:31:10.347Z,59.50
2018-09-22T04:33:37.943Z,58.90
2018-09-22T04:36:05.537Z,58.80
2018-09-22T04:38:33.373Z,58.80
2018-09-22T04:41:01.011Z,58.90
2018-09-22T04:43:28.688Z,58.80
2018-09-22T04:45:56.467Z,58.80
2018-09-22T04:48:24.108Z,58.90
2018-09-22T04:50:51.631Z,58.90
2018-09-22T04:53:19.466Z,58.90
2018-09-22T04:55:47.001Z,58.90
2018-09-22T04:58:14.560Z,58.90
2018-09-22T05:00:42.584Z,58.90
2018-09-22T05:03:10.108Z,58.90
2018-09-22T05:05:38.264Z,58.90
2018-09-22T05:08:06.103Z,58.90
2018-09-22T05:10:34.000Z,58.90
2018-09-22T05:13:01.542Z,59.50
2018-09-22T05:15:29.133Z,58.50
2018-09-22T05:17:56.989Z,58.90
2018-09-22T05:20:24.579Z,59.00
2018-09-22T05:22:52.142Z,59.00
2018-09-22T05:25:19.927Z,58.90
2018-09-22T05:27:47.497Z,58.90
2018-09-22T05:30:15.003Z,58.90
2018-09-22T05:32:42.708Z,58.90
2018-09-22T05:35:10.238Z,59.00
2018-09-22T05:37:37.853Z,59.80
2018-09-22T05:40:06.258Z,59.50
2018-09-22T05:42:33.829Z,59.90
2018-09-22T05:45:02.218Z,60.00
2018-09-22T05:47:30.069Z,59.70
2018-09-22T05:49:57.633Z,59.70
2018-09-22T05:52:25.171Z,59.30
2018-09-22T05:54:52.932Z,59.20
2018-09-22T05:57:20.291Z,59.30
2018-09-22T05:59:48.314Z,59.50
2018-09-22T06:02:15.847Z,59.40
2018-09-22T06:04:43.239Z,60.00
2018-09-22T06:07:10.916Z,59.60
2018-09-22T06:09:38.591Z,59.30
2018-09-22T06:12:06.030Z,59.30
2018-09-22T06:14:33.826Z,59.30
2018-09-22T06:17:01.469Z,58.70
2018-09-22T06:19:29.047Z,58.20
2018-09-22T06:21:56.956Z,57.60
2018-09-22T06:24:24.508Z,57.40
2018-09-22T06:26:52.773Z,56.80
2018-09-22T06:29:20.419Z,56.40
2018-09-22T06:31:48.269Z,55.40
2018-09-22T06:34:16.118Z,54.60
2018-09-22T06:36:43.624Z,54.30
2018-09-22T06:39:11.770Z,54.00
2018-09-22T06:41:45.758Z,53.50
2018-09-22T06:44:49.692Z,53.40
2018-09-22T06:47:32.136Z,53.30
2018-09-22T06:49:59.755Z,53.00
2018-09-22T06:52:27.299Z,52.60
2018-09-22T06:54:55.223Z,51.80
2018-09-22T06:57:22.747Z,51.20
2018-09-22T06:59:50.393Z,50.80
2018-09-22T07:02:18.255Z,49.60
2018-09-22T07:04:46.588Z,49.30
2018-09-22T07:07:14.623Z,48.70
2018-09-22T07:09:42.362Z,48.90
2018-09-22T07:12:09.892Z,49.10
2018-09-22T07:14:37.412Z,48.80
2018-09-22T07:19:33.020Z,46.70
2018-09-22T07:22:06.634Z,47.40
2018-09-22T07:24:34.152Z,46.90
2018-09-22T07:27:01.705Z,46.30
2018-09-22T07:29:29.545Z,46.70
2018-09-22T07:31:57.099Z,45.80
2018-09-22T07:34:24.707Z,44.40
2018-09-22T07:36:52.756Z,44.30
2018-09-22T07:39:20.345Z,43.80
2018-09-22T07:41:47.903Z,43.10
2018-09-22T07:44:15.872Z,43.30
2018-09-22T07:46:43.489Z,43.50
2018-09-22T07:49:11.054Z,42.30
2018-09-22T07:51:38.730Z,42.20
2018-09-22T07:54:06.415Z,41.80
2018-09-22T07:56:33.983Z,41.60
2018-09-22T07:59:01.581Z,41.40
2018-09-22T08:01:29.181Z,41.80
2018-09-22T08:03:56.828Z,42.00
2018-09-22T08:06:24.761Z,42.50
2018-09-22T08:08:53.080Z,42.30
2018-09-22T08:11:20.947Z,41.80
2018-09-22T08:13:48.556Z,41.60
2018-09-22T08:16:16.193Z,41.70
2018-09-22T08:18:43.811Z,41.60
2018-09-22T08:21:11.599Z,41.60
2018-09-22T08:23:39.368Z,40.80
2018-09-22T08:26:07.539Z,39.50
2018-09-22T08:28:35.343Z,39.30
2018-09-22T08:31:02.939Z,39.10
2018-09-22T08:33:30.505Z,38.30
2018-09-22T08:35:58.415Z,38.30
2018-09-22T08:38:25.942Z,38.00
2018-09-22T08:40:53.444Z,38.30
2018-09-22T08:43:21.200Z,38.30
2018-09-22T08:45:48.972Z,38.50
2018-09-22T08:48:16.596Z,38.50
2018-09-22T08:50:44.253Z,38.20
2018-09-22T08:53:11.776Z,38.40
2018-09-22T08:55:39.342Z,37.00
2018-09-22T08:58:07.203Z,36.50
2018-09-22T09:00:34.855Z,36.30
2018-09-22T09:03:02.417Z,36.40
2018-09-22T09:05:30.627Z,36.40
2018-09-22T09:07:58.160Z,36.50
2018-09-22T09:10:25.747Z,37.00
2018-09-22T09:12:53.565Z,37.40
2018-09-22T09:15:21.131Z,37.40
2018-09-22T09:17:48.755Z,37.80
2018-09-22T09:20:16.358Z,37.30
2018-09-22T09:22:43.887Z,37.20
2018-09-22T09:25:11.746Z,36.60
2018-09-22T09:27:39.407Z,36.30
2018-09-22T09:30:07.269Z,36.40
2018-09-22T09:32:35.137Z,36.40
2018-09-22T09:35:02.690Z,36.30
2018-09-22T09:37:30.319Z,36.00
2018-09-22T09:39:57.927Z,35.90
2018-09-22T09:42:25.508Z,35.00
2018-09-22T09:44:53.301Z,35.10
2018-09-22T09:47:21.232Z,35.30
2018-09-22T09:49:48.981Z,35.30
2018-09-22T09:52:16.744Z,34.50
2018-09-22T09:54:44.764Z,34.00
2018-09-22T09:57:12.279Z,33.80
2018-09-22T09:59:39.828Z,33.90
2018-09-22T10:02:07.693Z,34.30
2018-09-22T10:04:35.361Z,34.30
2018-09-22T10:07:03.299Z,34.30
2018-09-22T10:09:30.853Z,34.20
2018-09-22T10:11:58.430Z,34.20
2018-09-22T10:14:26.097Z,33.80
2018-09-22T10:16:53.788Z,34.00
2018-09-22T10:19:22.079Z,33.60
2018-09-22T10:21:49.895Z,33.70
2018-09-22T10:24:21.823Z,33.80
2018-09-22T10:26:50.026Z,33.40
2018-09-22T10:29:17.556Z,33.90
2018-09-22T10:31:46.084Z,34.20
2018-09-22T10:34:21.280Z,34.10
2018-09-22T10:36:54.476Z,33.60
2018-09-22T10:39:22.555Z,33.60
2018-09-22T10:41:53.623Z,33.30
2018-09-22T10:44:21.176Z,33.00
2018-09-22T10:46:49.328Z,33.10
2018-09-22T10:49:16.937Z,33.30
2018-09-22T10:51:44.544Z,33.50
2018-09-22T10:54:12.438Z,33.70
2018-09-22T10:56:40.089Z,33.90
2018-09-22T10:59:07.639Z,34.10
2018-09-22T11:01:35.248Z,34.40
2018-09-22T11:04:02.844Z,34.80
2018-09-22T11:06:30.440Z,35.00
2018-09-22T11:08:58.251Z,35.10
2018-09-22T11:11:25.849Z,35.50
2018-09-22T11:13:53.731Z,35.70
2018-09-22T11:16:21.328Z,35.70
2018-09-22T11:18:48.925Z,35.30
2018-09-22T11:21:16.476Z,35.50
2018-09-22T11:23:44.236Z,35.20
2018-09-22T11:26:11.877Z,35.10
2018-09-22T11:28:39.764Z,34.50
2018-09-22T11:31:07.712Z,34.10
2018-09-22T11:33:34.989Z,33.80
2018-09-22T11:36:03.085Z,33.90
2018-09-22T11:38:30.743Z,34.10
2018-09-22T11:40:58.196Z,34.70
2018-09-22T11:43:25.993Z,35.20
2018-09-22T11:45:53.563Z,35.40
2018-09-22T11:48:21.161Z,35.00
2018-09-22T11:50:49.314Z,34.90
2018-09-22T11:53:16.912Z,34.70
2018-09-22T11:55:44.493Z,34.70
2018-09-22T11:58:12.386Z,35.60
2018-09-22T12:00:40.660Z,34.80
2018-09-22T12:03:08.213Z,35.20
2018-09-22T12:05:35.859Z,35.30
2018-09-22T12:08:03.420Z,35.40
2018-09-22T12:10:30.984Z,35.10
2018-09-22T12:12:58.703Z,35.00
2018-09-22T12:15:26.264Z,35.00
2018-09-22T12:17:53.792Z,35.00
2018-09-22T12:20:21.692Z,35.30
2018-09-22T12:22:49.303Z,35.30
2018-09-22T12:25:16.943Z,35.40
2018-09-22T12:27:44.541Z,35.50
2018-09-22T12:30:12.124Z,35.60
2018-09-22T12:32:40.057Z,35.60
2018-09-22T12:35:07.981Z,35.70
2018-09-22T12:37:35.531Z,35.80
2018-09-22T12:40:03.636Z,35.80
2018-09-22T12:42:32.892Z,35.60
2018-09-22T12:45:00.448Z,35.40
2018-09-22T12:47:28.410Z,35.20
2018-09-22T12:49:55.976Z,35.20
2018-09-22T12:52:23.515Z,35.10
2018-09-22T12:54:51.423Z,35.00
2018-09-22T12:57:19.115Z,35.00
2018-09-22T12:59:46.696Z,35.20
2018-09-22T13:02:14.527Z,35.30
2018-09-22T13:04:42.030Z,35.20
2018-09-22T13:07:09.784Z,34.90
2018-09-22T13:09:37.311Z,33.70
2018-09-22T13:12:05.288Z,34.20
2018-09-22T13:14:32.840Z,34.20
2018-09-22T13:17:00.404Z,34.50
2018-09-22T13:19:27.988Z,34.50
2018-09-22T13:21:55.540Z,34.60
2018-09-22T13:24:24.136Z,34.90
2018-09-22T13:26:54.818Z,34.80
2018-09-22T13:29:22.402Z,34.90
2018-09-22T13:31:50.167Z,35.10
2018-09-22T13:34:17.542Z,35.10
2018-09-22T13:36:45.120Z,35.10
2018-09-22T13:39:13.100Z,35.10
2018-09-22T13:41:41.120Z,35.20
2018-09-22T13:44:08.942Z,35.40
2018-09-22T13:46:36.738Z,35.60
2018-09-22T13:49:04.369Z,35.70
2018-09-22T13:51:31.925Z,35.70
2018-09-22T13:53:59.532Z,35.60
2018-09-22T13:56:27.040Z,35.50
2018-09-22T13:58:54.658Z,35.50
2018-09-22T14:01:22.536Z,35.60
2018-09-22T14:03:50.124Z,35.60
2018-09-22T14:06:17.633Z,35.50
2018-09-22T14:08:46.382Z,35.50
2018-09-22T14:11:13.940Z,35.50
2018-09-22T14:13:41.487Z,35.50
2018-09-22T14:16:21.438Z,35.70
2018-09-22T14:18:59.339Z,35.50
2018-09-22T14:21:27.085Z,35.50
2018-09-22T14:23:54.637Z,35.50
2018-09-22T14:26:45.080Z,35.60
2018-09-22T14:29:20.029Z,35.70
2018-09-22T14:32:13.262Z,35.80
2018-09-22T14:34:41.183Z,35.80
2018-09-22T14:37:08.854Z,36.40
2018-09-22T14:39:36.446Z,36.00
2018-09-22T14:42:08.600Z,36.00
2018-09-22T14:44:36.183Z,35.90
2018-09-22T14:47:03.728Z,36.00
2018-09-22T14:49:31.584Z,36.00
2018-09-22T14:51:59.235Z,36.00
2018-09-22T14:54:27.304Z,36.00
2018-09-22T14:56:54.932Z,36.00
2018-09-22T14:59:22.607Z,36.10
2018-09-22T15:01:50.416Z,36.10
2018-09-22T15:04:17.994Z,36.20
2018-09-22T15:06:45.544Z,36.20
2018-09-22T15:09:15.003Z,36.20
2018-09-22T15:11:42.643Z,36.20
2018-09-22T15:14:10.363Z,36.40
2018-09-22T15:16:37.960Z,36.40
2018-09-22T15:19:05.921Z,36.60
2018-09-22T15:21:33.869Z,36.70
2018-09-22T15:24:01.479Z,36.70
2018-09-22T15:26:29.121Z,36.70
2018-09-22T15:28:57.297Z,36.80
2018-09-22T15:31:24.881Z,37.00
2018-09-22T15:33:52.420Z,37.00
2018-09-22T15:36:20.088Z,36.90
2018-09-22T15:38:47.665Z,37.50
2018-09-22T15:41:15.189Z,36.90
2018-09-22T15:43:42.932Z,37.00
2018-09-22T15:46:10.476Z,36.90
2018-09-22T15:48:38.055Z,36.90
2018-09-22T15:51:05.952Z,37.00
2018-09-22T15:53:33.811Z,37.20
2018-09-22T15:56:01.469Z,37.00
2018-09-22T15:58:29.675Z,37.00
2018-09-22T16:00:57.342Z,37.10
2018-09-22T16:03:24.892Z,37.10
2018-09-22T16:05:52.667Z,37.20
2018-09-22T16:08:20.287Z,37.20
2018-09-22T16:10:47.815Z,37.20
2018-09-22T16:13:15.675Z,37.20
2018-09-22T16:15:43.240Z,37.20
2018-09-22T16:18:10.804Z,37.20
2018-09-22T16:20:38.878Z,37.20
2018-09-22T16:23:07.303Z,37.20
2018-09-22T16:25:45.009Z,37.30
2018-09-22T16:30:41.407Z,37.30
2018-09-22T16:33:13.509Z,36.80
2018-09-22T16:35:41.644Z,37.50
2018-09-22T16:38:09.251Z,37.70
2018-09-22T16:40:37.752Z,37.70
2018-09-22T16:43:05.657Z,37.80
2018-09-22T16:45:33.741Z,37.90
2018-09-22T16:48:02.049Z,38.00
2018-09-22T16:50:29.712Z,38.00
2018-09-22T16:52:57.282Z,38.10
2018-09-22T16:55:24.895Z,38.10
2018-09-22T16:57:52.812Z,38.10
2018-09-22T17:00:20.434Z,38.70
2018-09-22T17:02:47.994Z,38.10
2018-09-22T17:05:15.940Z,38.20
2018-09-22T17:07:43.500Z,38.20
2018-09-22T17:10:11.070Z,38.30
2018-09-22T17:12:39.048Z,38.30
2018-09-22T17:15:06.639Z,38.40
2018-09-22T17:17:34.248Z,38.50
2018-09-22T17:20:02.445Z,38.70
2018-09-22T17:22:30.009Z,38.70
2018-09-22T17:24:57.565Z,38.70
2018-09-22T17:27:25.502Z,38.80
2018-09-22T17:29:53.052Z,38.90
2018-09-22T17:32:20.763Z,39.00
2018-09-22T17:34:48.651Z,39.10
2018-09-22T17:37:16.583Z,39.20
2018-09-22T17:39:44.104Z,39.20
2018-09-22T17:42:11.951Z,39.30
2018-09-22T17:44:40.034Z,39.40
2018-09-22T17:47:07.547Z,39.40
2018-09-22T17:49:35.395Z,39.30
2018-09-22T17:52:02.937Z,39.30
2018-09-22T17:54:30.485Z,39.40
2018-09-22T17:56:58.620Z,39.50
2018-09-22T17:59:26.220Z,39.50
2018-09-22T18:01:53.752Z,39.60
2018-09-22T18:04:21.310Z,39.80
2018-09-22T18:06:48.857Z,39.70
2018-09-22T18:09:16.619Z,39.70
2018-09-22T18:11:44.188Z,39.70
2018-09-22T18:14:11.792Z,39.60
2018-09-22T18:16:39.518Z,39.60
2018-09-22T18:19:07.007Z,39.60
2018-09-22T18:21:34.628Z,39.50
2018-09-22T18:24:02.417Z,39.50
2018-09-22T18:26:30.004Z,39.50
2018-09-22T18:28:57.532Z,39.50
2018-09-22T18:31:25.778Z,39.50
2018-09-22T18:33:53.404Z,39.50
2018-09-22T18:36:21.085Z,39.60
2018-09-22T18:38:49.155Z,39.70
2018-09-22T18:41:16.729Z,39.80
2018-09-22T18:43:44.978Z,39.80
2018-09-22T18:46:12.755Z,39.90
2018-09-22T18:48:40.388Z,40.10
2018-09-22T18:51:07.911Z,40.10
2018-09-22T18:53:35.949Z,40.20
2018-09-22T18:56:03.567Z,40.20
2018-09-22T18:58:31.196Z,40.20
2018-09-22T19:00:59.369Z,40.30
2018-09-22T19:03:26.922Z,40.30
2018-09-22T19:05:54.506Z,40.40
2018-09-22T19:08:24.266Z,40.40
2018-09-22T19:10:52.000Z,40.50
2018-09-22T19:13:26.177Z,40.50
2018-09-22T19:16:21.038Z,40.50
2018-09-22T19:18:59.070Z,40.60
2018-09-22T19:21:34.532Z,40.80
2018-09-22T19:24:06.386Z,40.80
2018-09-22T19:26:37.888Z,40.80
2018-09-22T19:29:13.021Z,40.90
2018-09-22T19:31:46.269Z,40.70
2018-09-22T19:34:17.287Z,41.40
2018-09-22T19:36:49.899Z,41.10
2018-09-22T19:39:23.802Z,41.20
2018-09-22T19:41:55.375Z,41.20
2018-09-22T19:44:35.773Z,41.30
2018-09-22T19:47:07.221Z,41.30
2018-09-22T19:49:43.725Z,41.40
2018-09-22T19:52:14.970Z,41.50
2018-09-22T19:54:43.529Z,41.50
2018-09-22T19:57:11.129Z,41.50
2018-09-22T19:59:38.974Z,41.60
2018-09-22T20:02:06.545Z,41.60
2018-09-22T20:04:34.135Z,41.60
2018-09-22T20:07:01.550Z,41.60
2018-09-22T20:09:29.946Z,41.70
2018-09-22T20:11:57.624Z,41.80
2018-09-22T20:14:25.452Z,41.90
2018-09-22T20:16:53.035Z,41.90
2018-09-22T20:19:20.641Z,42.00
2018-09-22T20:21:48.434Z,42.10
2018-09-22T20:24:16.082Z,42.10
2018-09-22T20:26:43.696Z,42.30
2018-09-22T20:29:11.545Z,42.40
2018-09-22T20:31:39.136Z,42.50
2018-09-22T20:34:07.100Z,42.50
2018-09-22T20:36:34.691Z,42.60
2018-09-22T20:39:02.389Z,42.70
2018-09-22T20:41:30.215Z,42.80
2018-09-22T20:43:58.520Z,42.80
2018-09-22T20:46:26.093Z,42.80
2018-09-22T20:48:53.622Z,43.20
2018-09-22T20:51:21.460Z,42.90
2018-09-22T20:53:49.651Z,42.90
2018-09-22T20:56:17.314Z,42.90
2018-09-22T20:58:45.293Z,42.90
2018-09-22T21:01:12.877Z,42.90
2018-09-22T21:03:40.653Z,42.90
2018-09-22T21:06:08.696Z,42.90
2018-09-22T21:08:36.448Z,42.90
2018-09-22T21:11:03.805Z,42.90
2018-09-22T21:13:31.699Z,43.00
2018-09-22T21:15:59.284Z,42.90
2018-09-22T21:18:26.924Z,43.00
2018-09-22T21:20:54.484Z,43.00
2018-09-22T21:23:22.023Z,43.00
2018-09-22T21:25:49.588Z,43.00
2018-09-22T21:28:17.155Z,43.00
2018-09-22T21:30:44.836Z,43.00
2018-09-22T21:33:12.689Z,43.00
2018-09-22T21:35:40.844Z,43.00
2018-09-22T21:38:08.664Z,43.00
2018-09-22T21:40:36.288Z,43.00
2018-09-22T21:43:04.230Z,43.10
2018-09-22T21:45:31.818Z,43.10
2018-09-22T21:47:59.808Z,43.10
2018-09-22T21:50:27.344Z,43.10
2018-09-22T21:52:54.900Z,43.40
2018-09-22T21:55:22.970Z,43.20
2018-09-22T21:57:50.509Z,43.20
2018-09-22T22:00:18.105Z,43.20
2018-09-22T22:02:45.819Z,43.00
2018-09-22T22:05:13.408Z,43.10
2018-09-22T22:07:40.998Z,43.10
2018-09-22T22:10:08.883Z,43.10
2018-09-22T22:12:36.508Z,43.20
2018-09-22T22:15:04.206Z,43.20
2018-09-22T22:17:31.783Z,43.20
2018-09-22T22:19:59.344Z,43.30
2018-09-22T22:22:26.913Z,43.30
2018-09-22T22:24:54.512Z,43.30
2018-09-22T22:27:22.122Z,43.30
2018-09-22T22:29:49.680Z,43.40
2018-09-22T22:32:17.767Z,43.30
2018-09-22T22:34:45.380Z,43.30
2018-09-22T22:37:12.991Z,43.30
2018-09-22T22:39:40.978Z,43.30
2018-09-22T22:42:08.511Z,43.30
2018-09-22T22:44:35.985Z,43.30
2018-09-22T22:47:04.192Z,43.40
2018-09-22T22:49:31.798Z,43.40
2018-09-22T22:51:59.204Z,43.50
2018-09-22T22:54:27.124Z,44.00
2018-09-22T22:56:54.676Z,44.00
2018-09-22T22:59:22.234Z,44.40
2018-09-22T23:01:49.856Z,44.50
2018-09-22T23:04:17.540Z,44.60
2018-09-22T23:06:45.136Z,44.70
2018-09-22T23:09:13.100Z,44.90
2018-09-22T23:11:40.651Z,45.10
2018-09-22T23:14:08.189Z,45.20
2018-09-22T23:16:36.139Z,45.40
2018-09-22T23:19:08.324Z,45.60
2018-09-22T23:21:36.240Z,45.70
2018-09-22T23:24:35.016Z,45.90
2018-09-22T23:27:02.781Z,46.10
2018-09-22T23:29:30.360Z,46.20
2018-09-22T23:31:57.908Z,46.50
2018-09-22T23:34:25.783Z,46.80
2018-09-22T23:36:53.329Z,47.10
2018-09-22T23:39:20.908Z,47.30
2018-09-22T23:41:48.601Z,47.60
2018-09-22T23:44:16.232Z,48.30
2018-09-22T23:46:44.144Z,47.90
2018-09-22T23:49:11.684Z,48.10
2018-09-22T23:51:39.473Z,48.20
2018-09-22T23:54:06.816Z,48.40
2018-09-22T23:56:34.427Z,48.60
2018-09-22T23:59:02.366Z,48.90
